Terminal Aerodrome Forecast
Issued by NWS Billings, MT

Home | Current Version | Previous Version | Text Only | Print | Product List | Glossary Off
Versions: 1 2 3 4 5 6 7 8 9 10 11 12 13 14 15 16 17 18 19 20 21 22 23 24 25 26 27 28 29 30 31

000
FTUS45 KBYZ 200221 AAA
TAFMLS
TAF AMD
KMLS 200221Z 2002/2024 02005KT P6SM OVC019
     FM200300 VRB04KT P6SM SCT019
     FM200700 VRB04KT 3SM BR SCT020
     FM201000 19005KT 1SM BR SCT015
     FM201500 18006KT P6SM VCFG SCT020
     FM201800 19007KT P6SM SCT100=

USA.gov is the U.S. government's official web portal to all federal, state and local government web resources and services.